Overview Statistics Trail Chart Weather Telemetry Raw packets
 

This is the latest recevied weather packets stored in our database for station/object Ostrach. If no packets are shown the sender has not sent any weather packets the latest 10 day(s).

<< 1 2 3 4 5 6 7 >>
Time Temp. Humidity Pressure Rain* Wind** Luminosity Snow
1788577329 18.89° C 74% 1015.2 hPa 0 mm - - -
1788575529 18.89° C 72% 1014.9 hPa 0 mm - - -
1788573729 18.33° C 73% 1014.8 hPa 0 mm - - -
1788571929 18.89° C 71% 1014.4 hPa 0 mm - - -
1788570129 20.56° C 68% 1014.5 hPa 0 mm - - -
1788568332 20.56° C 66% 1014.3 hPa 0 mm - - -
1788566531 20.56° C 68% 1014.2 hPa 0 mm - - -
1788564731 20.56° C 68% 1014.2 hPa 0 mm - - -
1788562931 19.44° C 70% 1014 hPa 0 mm - - -
1788561131 20.56° C 68% 1013.9 hPa 0 mm - - -
1788559332 21.67° C 64% 1013.9 hPa 0 mm - - -
1788557531 18.33° C 75% 1013.9 hPa 0 mm - - -
1788555731 18.33° C 77% 1013.7 hPa 0 mm - - -
1788553931 18.89° C 74% 1013.9 hPa 0 mm - - -
1788552130 19.44° C 72% 1013.7 hPa 0 mm - - -
1788550330 20.56° C 69% 1013.7 hPa 0 mm - - -
1788548531 22.22° C 62% 1013.2 hPa 0 mm - - -
1788546731 24.44° C 53% 1012.8 hPa 0 mm - - -
1788544931 26.11° C 48% 1012.4 hPa 0 mm - - -
1788543130 27.22° C 44% 1012 hPa 0 mm - - -
1788541344 28.89° C 40% 1012.1 hPa 0 mm - - -
1788539531 30° C 38% 1012 hPa 0 mm - - -
1788537731 30.56° C 36% 1012.2 hPa 0 mm - - -
1788535931 30° C 37% 1012.4 hPa 0 mm - - -
1788534131 30.56° C 41% 1012.6 hPa 0 mm - - -

* Rain since midnight (hover to see other rain measurements)
** Current wind speed in m/s (hover to see current wind gust speed)